Terminal Aerodrome Forecast
Issued by NWS

Home | Current Version | Previous Version | Text Only | Print | Product List | Glossary On
Versions: 1 2 3 4 5 6 7 8 9 10 11 12 13 14 15 16 17 18 19 20 21 22 23 24
000
FTUS46 KLOX 202332
TAFLGB
TAF
KLGB 202332Z 2100/2124 20010KT P6SM SKC
     FM210030 29009KT P6SM SKC
     FM210600 VRB03KT P6SM SCT150 SCT200
     FM211800 19006KT P6SM SCT035 SCT150=

USA.gov is the U.S. government's official web portal to all federal, state and local government web resources and services.